createdAt,value
2019-01-10T00:00:47.555Z,7.08
2019-01-10T00:03:13.705Z,7.23
2019-01-10T00:05:40.052Z,7.24
2019-01-10T00:08:06.315Z,7.26
2019-01-10T00:10:32.489Z,7.14
2019-01-10T00:12:58.676Z,7.20
2019-01-10T00:15:24.827Z,7.22
2019-01-10T00:17:50.988Z,7.15
2019-01-10T00:20:17.373Z,7.05
2019-01-10T00:22:43.952Z,7.15
2019-01-10T00:25:12.229Z,7.18
2019-01-10T00:27:38.418Z,7.05
2019-01-10T00:30:08.183Z,6.83
2019-01-10T00:32:34.451Z,6.09
2019-01-10T00:35:00.632Z,6.08
2019-01-10T00:37:26.779Z,5.66
2019-01-10T00:39:53.037Z,5.92
2019-01-10T00:42:19.337Z,5.87
2019-01-10T00:44:45.600Z,6.04
2019-01-10T00:47:11.862Z,6.31
2019-01-10T00:49:38.147Z,6.40
2019-01-10T00:52:04.403Z,6.23
2019-01-10T00:54:36.737Z,6.25
2019-01-10T00:57:02.934Z,5.63
2019-01-10T00:59:29.100Z,5.49
2019-01-10T01:01:55.362Z,5.33
2019-01-10T01:04:21.563Z,5.46
2019-01-10T01:06:48.047Z,5.01
2019-01-10T01:09:14.304Z,5.03
2019-01-10T01:11:40.492Z,4.75
2019-01-10T01:14:06.645Z,4.29
2019-01-10T01:16:32.901Z,4.10
2019-01-10T01:18:59.093Z,4.02
2019-01-10T01:21:25.252Z,3.74
2019-01-10T01:23:51.411Z,3.91
2019-01-10T01:26:17.616Z,3.79
2019-01-10T01:28:43.871Z,3.65
2019-01-10T01:31:10.027Z,3.69
2019-01-10T01:33:36.213Z,3.72
2019-01-10T01:36:02.478Z,3.27
2019-01-10T01:38:28.632Z,3.61
2019-01-10T01:40:54.823Z,3.88
2019-01-10T01:43:20.971Z,3.78
2019-01-10T01:45:47.231Z,3.62
2019-01-10T01:48:13.458Z,3.16
2019-01-10T01:50:39.616Z,3.35
2019-01-10T01:53:05.774Z,3.72
2019-01-10T01:55:32.807Z,4.08
2019-01-10T01:57:58.967Z,4.02
2019-01-10T02:00:25.235Z,4.08
2019-01-10T02:02:51.627Z,4.17
2019-01-10T02:05:17.789Z,4.19
2019-01-10T02:07:43.934Z,4.22
2019-01-10T02:10:18.944Z,3.93
2019-01-10T02:12:45.098Z,4.32
2019-01-10T02:15:11.559Z,4.13
2019-01-10T02:17:37.861Z,4.29
2019-01-10T02:20:06.813Z,4.06
2019-01-10T02:22:33.466Z,4.04
2019-01-10T02:24:59.669Z,4.25
2019-01-10T02:27:25.818Z,4.13
2019-01-10T02:29:52.092Z,4.15
2019-01-10T02:32:18.292Z,4.20
2019-01-10T02:34:44.451Z,4.55
2019-01-10T02:37:10.705Z,4.44
2019-01-10T02:39:36.885Z,4.36
2019-01-10T02:42:03.047Z,4.01
2019-01-10T02:44:29.231Z,4.00
2019-01-10T02:46:55.376Z,4.07
2019-01-10T02:49:21.634Z,4.06
2019-01-10T02:51:47.805Z,4.32
2019-01-10T02:54:14.006Z,4.27
2019-01-10T02:56:40.208Z,4.13
2019-01-10T02:59:06.456Z,4.25
2019-01-10T03:01:32.645Z,4.11
2019-01-10T03:03:58.801Z,4.22
2019-01-10T03:06:24.968Z,4.00
2019-01-10T03:08:51.247Z,4.32
2019-01-10T03:11:17.398Z,4.49
2019-01-10T03:13:43.568Z,4.78
2019-01-10T03:16:09.763Z,4.80
2019-01-10T03:18:35.928Z,4.83
2019-01-10T03:21:02.192Z,4.37
2019-01-10T03:23:28.395Z,4.22
2019-01-10T03:25:54.551Z,4.35
2019-01-10T03:28:20.701Z,4.35
2019-01-10T03:30:47.004Z,4.50
2019-01-10T03:33:13.150Z,4.63
2019-01-10T03:35:39.303Z,4.57
2019-01-10T03:38:05.485Z,4.21
2019-01-10T03:40:31.749Z,4.17
2019-01-10T03:42:57.918Z,4.13
2019-01-10T03:45:24.214Z,4.05
2019-01-10T03:47:50.366Z,4.10
2019-01-10T03:50:16.721Z,4.18
2019-01-10T03:52:42.937Z,4.13
2019-01-10T03:55:09.287Z,4.36
2019-01-10T03:57:35.682Z,4.70
2019-01-10T04:00:04.464Z,4.64
2019-01-10T04:02:30.729Z,4.83
2019-01-10T04:04:56.881Z,4.87
2019-01-10T04:07:23.491Z,5.00
2019-01-10T04:09:49.646Z,5.01
2019-01-10T04:12:15.919Z,5.11
2019-01-10T04:14:42.097Z,5.05
2019-01-10T04:17:08.375Z,5.03
2019-01-10T04:19:34.620Z,4.96
2019-01-10T04:22:00.922Z,4.93
2019-01-10T04:24:27.085Z,4.65
2019-01-10T04:26:53.250Z,4.62
2019-01-10T04:29:19.443Z,4.60
2019-01-10T04:31:45.601Z,4.49
2019-01-10T04:34:11.756Z,4.48
2019-01-10T04:36:38.040Z,4.46
2019-01-10T04:39:06.004Z,4.73
2019-01-10T04:41:32.172Z,4.87
2019-01-10T04:44:06.725Z,4.91
2019-01-10T04:46:26.441Z,4.90
2019-01-10T04:48:52.616Z,4.88
2019-01-10T04:51:18.904Z,4.89
2019-01-10T04:53:45.060Z,4.66
2019-01-10T04:56:11.222Z,4.43
2019-01-10T04:58:37.539Z,4.41
2019-01-10T05:01:03.803Z,3.86
2019-01-10T05:03:29.969Z,4.02
2019-01-10T05:05:56.157Z,4.08
2019-01-10T05:08:22.420Z,4.00
2019-01-10T05:10:48.693Z,4.35
2019-01-10T05:13:14.893Z,4.50
2019-01-10T05:15:41.053Z,4.76
2019-01-10T05:18:08.198Z,4.83
2019-01-10T05:20:36.516Z,4.97
2019-01-10T05:23:04.596Z,5.15
2019-01-10T05:25:30.757Z,5.16
2019-01-10T05:27:56.949Z,4.64
2019-01-10T05:30:23.619Z,4.58
2019-01-10T05:32:49.998Z,4.74
2019-01-10T05:35:16.296Z,4.67
2019-01-10T05:37:42.456Z,4.62
2019-01-10T05:40:10.734Z,4.71
2019-01-10T05:42:37.033Z,4.97
2019-01-10T05:45:06.409Z,5.06
2019-01-10T05:47:32.581Z,5.00
2019-01-10T05:49:58.884Z,4.72
2019-01-10T05:52:25.152Z,4.29
2019-01-10T05:54:51.411Z,4.46
2019-01-10T05:57:17.718Z,4.92
2019-01-10T05:59:44.023Z,4.68
2019-01-10T06:02:10.291Z,4.36
2019-01-10T06:04:36.492Z,4.92
2019-01-10T06:07:02.760Z,5.21
2019-01-10T06:09:28.915Z,5.35
2019-01-10T06:11:55.225Z,5.39
2019-01-10T06:14:21.402Z,5.62
2019-01-10T06:16:47.669Z,5.48
2019-01-10T06:19:13.973Z,5.56
2019-01-10T06:21:40.238Z,5.81
2019-01-10T06:24:06.500Z,5.82
2019-01-10T06:26:32.791Z,5.60
2019-01-10T06:28:58.964Z,5.84
2019-01-10T06:31:25.123Z,6.05
2019-01-10T06:33:51.528Z,6.13
2019-01-10T06:36:17.694Z,6.18
2019-01-10T06:38:43.971Z,6.06
2019-01-10T06:41:10.275Z,5.94
2019-01-10T06:43:36.434Z,6.06
2019-01-10T06:46:02.908Z,5.83
2019-01-10T06:48:29.212Z,5.89
2019-01-10T06:50:55.490Z,5.75
2019-01-10T06:53:21.796Z,5.88
2019-01-10T06:55:48.105Z,5.78
2019-01-10T06:58:14.376Z,6.04
2019-01-10T07:00:40.708Z,6.22
2019-01-10T07:03:07.022Z,6.39
2019-01-10T07:05:33.182Z,6.57
2019-01-10T07:07:59.662Z,6.63
2019-01-10T07:10:28.777Z,6.64
2019-01-10T07:12:54.600Z,6.85
2019-01-10T07:15:20.859Z,6.82
2019-01-10T07:17:47.059Z,6.89
2019-01-10T07:20:13.340Z,7.13
2019-01-10T07:22:45.165Z,7.09
2019-01-10T07:25:11.350Z,7.14
2019-01-10T07:27:37.600Z,7.38
2019-01-10T07:30:06.655Z,7.14
2019-01-10T07:32:32.848Z,6.21
2019-01-10T07:34:59.149Z,6.20
2019-01-10T07:37:25.305Z,6.45
2019-01-10T07:39:51.500Z,6.42
2019-01-10T07:42:17.755Z,6.08
2019-01-10T07:44:43.918Z,5.65
2019-01-10T07:47:10.216Z,5.82
2019-01-10T07:49:36.483Z,5.97
2019-01-10T07:52:02.943Z,5.64
2019-01-10T07:54:29.147Z,5.91
2019-01-10T07:56:55.308Z,5.98
2019-01-10T07:59:21.466Z,6.01
2019-01-10T08:01:47.738Z,6.16
2019-01-10T08:04:13.913Z,6.02
2019-01-10T08:06:40.186Z,5.95
2019-01-10T08:09:07.682Z,6.18
2019-01-10T08:11:35.151Z,6.65
2019-01-10T08:14:01.423Z,6.23
2019-01-10T08:16:27.612Z,6.64
2019-01-10T08:18:53.863Z,6.76
2019-01-10T08:21:20.114Z,7.23
2019-01-10T08:23:46.313Z,7.10
2019-01-10T08:26:12.590Z,7.34
2019-01-10T08:28:38.752Z,7.68
2019-01-10T08:31:05.066Z,7.49
2019-01-10T08:33:31.267Z,7.49
2019-01-10T08:35:57.424Z,7.59
2019-01-10T08:38:23.615Z,8.12
2019-01-10T08:40:49.902Z,8.24
2019-01-10T08:43:16.063Z,8.62
2019-01-10T08:45:42.378Z,8.92
2019-01-10T08:48:08.526Z,8.81
2019-01-10T08:50:34.801Z,8.23
2019-01-10T08:53:00.999Z,7.47
2019-01-10T08:55:27.355Z,7.41
2019-01-10T08:57:53.534Z,7.59
2019-01-10T09:00:20.224Z,7.10
2019-01-10T09:02:46.452Z,6.90
2019-01-10T09:05:12.732Z,7.15
2019-01-10T09:07:39.021Z,7.07
2019-01-10T09:10:08.875Z,6.82
2019-01-10T09:12:35.045Z,6.54
2019-01-10T09:15:01.265Z,6.23
2019-01-10T09:17:27.438Z,6.61
2019-01-10T09:19:53.921Z,6.35
2019-01-10T09:22:20.114Z,6.18
2019-01-10T09:24:46.264Z,6.64
2019-01-10T09:27:12.426Z,6.85
2019-01-10T09:29:38.627Z,7.27
2019-01-10T09:32:04.786Z,7.43
2019-01-10T09:34:30.952Z,7.37
2019-01-10T09:36:57.232Z,6.94
2019-01-10T09:39:23.390Z,7.26
2019-01-10T09:41:49.654Z,6.37
2019-01-10T09:44:15.864Z,6.62
2019-01-10T09:46:42.122Z,7.37
2019-01-10T09:49:08.371Z,7.70
2019-01-10T09:51:34.567Z,8.04
2019-01-10T09:54:00.817Z,8.27
2019-01-10T09:56:26.968Z,8.18
2019-01-10T09:58:53.263Z,7.39
2019-01-10T10:01:19.539Z,7.60
2019-01-10T10:03:45.705Z,7.65
2019-01-10T10:06:12.027Z,7.48
2019-01-10T10:08:38.535Z,7.87
2019-01-10T10:11:04.684Z,8.13
2019-01-10T10:13:30.883Z,7.72
2019-01-10T10:15:57.045Z,7.80
2019-01-10T10:18:23.208Z,8.00
2019-01-10T10:20:49.502Z,8.15
2019-01-10T10:23:15.753Z,8.11
2019-01-10T10:25:41.916Z,7.56
2019-01-10T10:28:08.109Z,7.32
2019-01-10T10:30:34.280Z,6.65
2019-01-10T10:33:00.422Z,6.27
2019-01-10T10:35:26.612Z,6.58
2019-01-10T10:37:52.767Z,6.50
2019-01-10T10:40:19.230Z,6.68
2019-01-10T10:42:46.544Z,6.98
2019-01-10T10:45:15.031Z,7.07
2019-01-10T10:47:41.296Z,7.41
2019-01-10T10:50:11.091Z,7.24
2019-01-10T10:52:37.264Z,6.72
2019-01-10T10:55:04.721Z,6.83
2019-01-10T10:57:31.019Z,7.25
2019-01-10T10:59:57.173Z,7.05
2019-01-10T11:02:23.342Z,6.73
2019-01-10T11:04:49.574Z,6.62
2019-01-10T11:07:15.844Z,6.46
2019-01-10T11:09:42.007Z,6.98
2019-01-10T11:12:08.320Z,6.68
2019-01-10T11:14:34.595Z,6.93
2019-01-10T11:17:00.752Z,6.29
2019-01-10T11:19:30.102Z,5.73
2019-01-10T11:21:56.264Z,5.96
2019-01-10T11:24:24.377Z,6.67
2019-01-10T11:26:50.557Z,7.00
2019-01-10T11:29:16.821Z,7.65
2019-01-10T11:31:42.991Z,7.58
2019-01-10T11:34:09.237Z,7.78
2019-01-10T11:36:35.388Z,7.42
2019-01-10T11:39:01.544Z,7.48
2019-01-10T11:41:27.760Z,7.08
2019-01-10T11:43:53.923Z,7.59
2019-01-10T11:46:20.164Z,7.73
2019-01-10T11:48:46.489Z,8.08
2019-01-10T11:51:12.687Z,8.05
2019-01-10T11:53:38.902Z,7.94
2019-01-10T11:56:05.096Z,7.71
2019-01-10T11:58:31.256Z,7.09
2019-01-10T12:00:57.514Z,7.05
2019-01-10T12:03:23.841Z,7.83
2019-01-10T12:05:52.934Z,7.24
2019-01-10T12:08:18.074Z,7.47
2019-01-10T12:10:44.276Z,7.53
2019-01-10T12:13:10.445Z,7.44
2019-01-10T12:15:36.627Z,7.33
2019-01-10T12:18:03.419Z,7.41
2019-01-10T12:20:29.584Z,7.74
2019-01-10T12:22:55.735Z,8.16
2019-01-10T12:25:21.925Z,8.23
2019-01-10T12:27:48.177Z,8.24
2019-01-10T12:30:20.690Z,7.76
2019-01-10T12:32:46.882Z,7.30
2019-01-10T12:35:13.164Z,7.00
2019-01-10T12:37:39.323Z,7.27
2019-01-10T12:40:13.647Z,7.36
2019-01-10T12:42:39.808Z,7.36
2019-01-10T12:45:09.364Z,7.03
2019-01-10T12:47:35.548Z,7.03
2019-01-10T12:50:01.911Z,6.78
2019-01-10T12:52:35.114Z,6.41
2019-01-10T12:54:56.181Z,6.17
2019-01-10T12:57:23.225Z,6.48
2019-01-10T12:59:49.393Z,6.64
2019-01-10T13:02:15.601Z,6.55
2019-01-10T13:04:41.761Z,6.78
2019-01-10T13:07:07.949Z,6.90
2019-01-10T13:09:34.483Z,7.04
2019-01-10T13:12:05.472Z,6.79
2019-01-10T13:14:31.638Z,7.04
2019-01-10T13:16:58.254Z,7.09
2019-01-10T13:19:24.518Z,6.59
2019-01-10T13:21:50.772Z,6.18
2019-01-10T13:24:17.068Z,6.23
2019-01-10T13:26:45.619Z,6.34
2019-01-10T13:29:11.663Z,5.96
2019-01-10T13:31:37.871Z,5.63
2019-01-10T13:34:04.320Z,5.50
2019-01-10T13:36:33.837Z,5.97
2019-01-10T13:39:00.121Z,5.90
2019-01-10T13:41:26.276Z,5.77
2019-01-10T13:43:52.530Z,5.86
2019-01-10T13:46:18.818Z,5.89
2019-01-10T13:48:51.367Z,6.19
2019-01-10T13:51:18.053Z,6.26
2019-01-10T13:53:46.164Z,6.40
2019-01-10T13:56:12.328Z,6.43
2019-01-10T13:58:38.481Z,6.54
2019-01-10T14:03:33.203Z,6.75
2019-01-10T14:05:59.848Z,6.93
2019-01-10T14:08:26.155Z,6.97
2019-01-10T14:10:52.329Z,6.91
2019-01-10T14:13:18.589Z,6.92
2019-01-10T14:15:44.941Z,6.95
2019-01-10T14:18:11.103Z,6.85
2019-01-10T14:20:37.279Z,6.79
2019-01-10T14:23:04.158Z,6.85
2019-01-10T14:25:30.421Z,6.78
2019-01-10T14:28:00.028Z,6.69
2019-01-10T14:30:31.915Z,6.58
2019-01-10T14:32:58.172Z,6.50
2019-01-10T14:35:24.437Z,6.61
2019-01-10T14:37:50.634Z,6.58
2019-01-10T14:40:17.683Z,6.41
2019-01-10T14:42:43.860Z,6.45
2019-01-10T14:45:13.056Z,6.34
2019-01-10T14:47:39.328Z,5.91
2019-01-10T14:50:08.117Z,6.01
2019-01-10T14:52:36.248Z,6.02
2019-01-10T14:55:05.209Z,5.98
2019-01-10T14:57:34.328Z,5.97
2019-01-10T15:00:00.622Z,5.69
2019-01-10T15:02:26.780Z,5.60
2019-01-10T15:04:52.962Z,5.60
2019-01-10T15:07:19.162Z,5.45
2019-01-10T15:09:45.330Z,5.22
2019-01-10T15:12:11.851Z,5.04
2019-01-10T15:14:38.062Z,4.97
2019-01-10T15:17:04.223Z,5.09
2019-01-10T15:19:30.406Z,5.12
2019-01-10T15:21:56.587Z,4.80
2019-01-10T15:24:22.740Z,4.10
2019-01-10T15:26:48.919Z,4.21
2019-01-10T15:29:15.217Z,4.16
2019-01-10T15:31:41.413Z,4.44
2019-01-10T15:34:07.571Z,4.63
2019-01-10T15:36:33.760Z,4.59
2019-01-10T15:39:00.027Z,4.37
2019-01-10T15:41:26.300Z,4.60
2019-01-10T15:43:52.638Z,4.98
2019-01-10T15:46:18.858Z,5.09
2019-01-10T15:48:45.018Z,5.22
2019-01-10T15:51:11.216Z,5.28
2019-01-10T15:53:37.481Z,5.49
2019-01-10T15:56:03.851Z,5.54
2019-01-10T15:58:30.109Z,5.68
2019-01-10T16:00:56.231Z,5.74
2019-01-10T16:03:22.502Z,5.81
2019-01-10T16:05:48.818Z,5.74
2019-01-10T16:08:15.096Z,5.41
2019-01-10T16:10:41.564Z,5.07
2019-01-10T16:13:07.856Z,5.10
2019-01-10T16:15:34.114Z,5.24
2019-01-10T16:18:00.676Z,5.51
2019-01-10T16:20:26.895Z,5.66
2019-01-10T16:22:53.148Z,5.85
2019-01-10T16:25:19.787Z,5.45
2019-01-10T16:27:46.749Z,5.62
2019-01-10T16:30:21.505Z,5.75
2019-01-10T16:32:48.615Z,5.76
2019-01-10T16:35:14.869Z,5.27
2019-01-10T16:37:41.025Z,5.39
2019-01-10T16:40:11.834Z,5.34
2019-01-10T16:42:37.989Z,4.96
2019-01-10T16:45:10.649Z,4.81
2019-01-10T16:47:36.834Z,4.75
2019-01-10T16:50:06.396Z,4.70
2019-01-10T16:52:32.561Z,4.68
2019-01-10T16:54:58.738Z,4.51
2019-01-10T16:57:25.008Z,4.76
2019-01-10T16:59:51.267Z,4.56
2019-01-10T17:02:17.556Z,4.35
2019-01-10T17:04:43.702Z,4.21
2019-01-10T17:07:09.876Z,4.01
2019-01-10T17:09:36.123Z,3.86
2019-01-10T17:12:03.004Z,4.30
2019-01-10T17:14:29.171Z,4.33
2019-01-10T17:16:55.360Z,4.19
2019-01-10T17:19:21.556Z,4.30
2019-01-10T17:21:47.723Z,3.80
2019-01-10T17:24:13.923Z,3.72
2019-01-10T17:26:40.079Z,3.66
2019-01-10T17:29:07.300Z,3.66
2019-01-10T17:31:33.500Z,3.83
2019-01-10T17:33:59.770Z,4.24
2019-01-10T17:36:26.093Z,4.26
2019-01-10T17:38:52.283Z,4.41
2019-01-10T17:41:18.437Z,4.39
2019-01-10T17:43:44.595Z,4.33
2019-01-10T17:46:10.791Z,4.33
2019-01-10T17:48:36.953Z,4.41
2019-01-10T17:51:03.889Z,4.83
2019-01-10T17:53:30.418Z,4.92
2019-01-10T17:55:56.574Z,5.10
2019-01-10T17:58:22.726Z,4.60
2019-01-10T18:00:49.973Z,4.24
2019-01-10T18:03:16.261Z,4.49
2019-01-10T18:05:42.415Z,4.39
2019-01-10T18:08:08.617Z,4.26
2019-01-10T18:10:34.769Z,4.76
2019-01-10T18:13:00.924Z,4.08
2019-01-10T18:15:27.249Z,4.51
2019-01-10T18:17:53.406Z,4.95
2019-01-10T18:20:28.602Z,4.91
2019-01-10T18:22:54.788Z,4.41
2019-01-10T18:25:20.948Z,4.55
2019-01-10T18:27:47.110Z,4.46
2019-01-10T18:30:17.159Z,3.84
2019-01-10T18:32:43.354Z,4.21
2019-01-10T18:35:10.061Z,4.33
2019-01-10T18:37:36.244Z,4.30
2019-01-10T18:40:04.566Z,4.38
2019-01-10T18:42:30.776Z,4.24
2019-01-10T18:44:56.985Z,4.43
2019-01-10T18:47:23.216Z,4.24
2019-01-10T18:49:49.381Z,4.51
2019-01-10T18:52:15.561Z,3.87
2019-01-10T18:54:41.738Z,4.43
2019-01-10T18:57:07.993Z,4.07
2019-01-10T18:59:35.546Z,4.07
2019-01-10T19:02:01.859Z,4.11
2019-01-10T19:04:28.359Z,3.87
2019-01-10T19:07:00.801Z,4.06
2019-01-10T19:09:32.067Z,4.16
2019-01-10T19:12:00.293Z,4.06
2019-01-10T19:14:26.537Z,3.81
2019-01-10T19:16:52.699Z,3.79
2019-01-10T19:19:18.955Z,3.70
2019-01-10T19:21:49.834Z,4.06
2019-01-10T19:24:16.300Z,4.07
2019-01-10T19:26:42.555Z,3.60
2019-01-10T19:29:08.852Z,3.85
2019-01-10T19:31:35.115Z,4.30
2019-01-10T19:34:01.275Z,3.75
2019-01-10T19:36:27.673Z,3.81
2019-01-10T19:38:53.816Z,3.75
2019-01-10T19:41:19.963Z,3.64
2019-01-10T19:43:46.144Z,3.14
2019-01-10T19:46:25.663Z,3.17
2019-01-10T19:48:43.285Z,3.05
2019-01-10T19:51:09.474Z,3.55
2019-01-10T19:53:35.733Z,3.73
2019-01-10T19:56:01.891Z,3.56
2019-01-10T19:58:28.079Z,4.01
2019-01-10T20:00:54.242Z,3.46
2019-01-10T20:03:21.151Z,3.75
2019-01-10T20:05:47.383Z,3.65
2019-01-10T20:08:13.546Z,4.02
2019-01-10T20:10:39.795Z,4.22
2019-01-10T20:13:05.987Z,4.19
2019-01-10T20:15:32.249Z,3.50
2019-01-10T20:17:58.907Z,3.80
2019-01-10T20:20:28.095Z,3.62
2019-01-10T20:22:54.254Z,3.53
2019-01-10T20:25:20.521Z,3.94
2019-01-10T20:27:46.811Z,3.97
2019-01-10T20:30:16.566Z,3.83
2019-01-10T20:32:42.823Z,3.80
2019-01-10T20:35:09.487Z,3.72
2019-01-10T20:37:35.655Z,3.86
2019-01-10T20:40:03.225Z,4.11
2019-01-10T20:42:29.409Z,3.76
2019-01-10T20:44:55.573Z,3.90
2019-01-10T20:47:21.828Z,4.12
2019-01-10T20:49:48.023Z,3.95
2019-01-10T20:52:14.181Z,4.02
2019-01-10T20:54:40.339Z,4.02
2019-01-10T20:57:06.536Z,4.02
2019-01-10T20:59:32.695Z,4.10
2019-01-10T21:01:58.859Z,4.29
2019-01-10T21:04:25.153Z,3.79
2019-01-10T21:06:51.307Z,4.05
2019-01-10T21:12:02.623Z,3.61
2019-01-10T21:14:28.795Z,3.99
2019-01-10T21:16:54.953Z,3.52
2019-01-10T21:19:21.260Z,3.89
2019-01-10T21:21:49.213Z,4.15
2019-01-10T21:24:15.514Z,4.36
2019-01-10T21:26:42.040Z,4.52
2019-01-10T21:29:08.210Z,4.38
2019-01-10T21:31:34.666Z,4.49
2019-01-10T21:34:00.924Z,4.17
2019-01-10T21:36:27.262Z,3.83
2019-01-10T21:38:53.894Z,4.27
2019-01-10T21:41:20.046Z,4.23
2019-01-10T21:43:46.204Z,4.23
2019-01-10T21:46:12.362Z,4.76
2019-01-10T21:48:38.651Z,4.88
2019-01-10T21:51:04.808Z,4.78
2019-01-10T21:53:31.066Z,4.81
2019-01-10T21:55:57.364Z,4.67
2019-01-10T21:58:23.633Z,4.78
2019-01-10T22:00:49.888Z,4.89
2019-01-10T22:03:16.279Z,4.81
2019-01-10T22:05:42.435Z,4.46
2019-01-10T22:08:08.692Z,4.22
2019-01-10T22:10:34.880Z,4.40
2019-01-10T22:13:01.360Z,4.12
2019-01-10T22:15:27.626Z,4.17
2019-01-10T22:17:53.814Z,4.46
2019-01-10T22:20:21.869Z,4.53
2019-01-10T22:22:48.020Z,4.60
2019-01-10T22:25:14.522Z,4.53
2019-01-10T22:27:40.780Z,4.79
2019-01-10T22:30:10.311Z,4.46
2019-01-10T22:32:36.615Z,4.20
2019-01-10T22:35:05.977Z,4.30
2019-01-10T22:37:32.240Z,3.93
2019-01-10T22:39:59.429Z,3.73
2019-01-10T22:42:25.579Z,4.00
2019-01-10T22:44:51.833Z,3.97
2019-01-10T22:47:18.023Z,3.79
2019-01-10T22:49:44.182Z,4.21
2019-01-10T22:52:10.333Z,4.17
2019-01-10T22:54:36.530Z,4.31
2019-01-10T22:57:02.675Z,4.59
2019-01-10T22:59:28.934Z,4.56
2019-01-10T23:01:56.055Z,4.77
2019-01-10T23:04:27.234Z,4.95
2019-01-10T23:06:53.404Z,5.04
2019-01-10T23:09:19.715Z,5.08
2019-01-10T23:11:45.888Z,4.64
2019-01-10T23:14:12.046Z,4.17
2019-01-10T23:16:38.235Z,4.62
2019-01-10T23:19:04.999Z,4.28
2019-01-10T23:21:31.152Z,4.42
2019-01-10T23:23:59.235Z,4.51
2019-01-10T23:26:25.399Z,4.33
2019-01-10T23:28:51.562Z,4.77
2019-01-10T23:31:20.243Z,4.50
2019-01-10T23:33:46.401Z,3.89
2019-01-10T23:36:12.660Z,3.84
2019-01-10T23:38:38.840Z,3.82
2019-01-10T23:41:05.000Z,4.02
2019-01-10T23:43:31.157Z,3.78
2019-01-10T23:45:57.345Z,3.74
2019-01-10T23:48:24.004Z,3.94
2019-01-10T23:50:50.158Z,4.29
2019-01-10T23:53:16.341Z,4.27
2019-01-10T23:55:42.897Z,4.45
2019-01-10T23:58:09.046Z,4.29
